Charleston, Tennessee
Current Conditions -  °F | °C
As of 2:15 PM on Friday 28 Nov 2014 (Local Time) from KMMI Reporting Station
Clear Clear  
Wind Chill: 41°   Ceiling: Unl
Heat Index: 41°   Visibility: 10mi
Dew Point: 14°   Wind: 0mph
Humidity: 33%   Direction: NA
Pressure: 30.33"   Gusts: NA
Location:  35.29°N, 84.76°W
Report Text: KMMI 281915Z AUTO 00000KT 10SM CLR 05/M10 A3033 RMK
Loading
Personal Weather Stations






























Interactive Weather Map New forecast layout! Learn more

10-Day Weather Forecast

Advertisements
Track Severe Weather on mobile